Time;durP1;ratioP1;P1;durP2;ratioP2;P2;SDS_P1;SDS_P2;PMS_P1;PMS_P2;Temp;Humidity;BMP_temperature;BMP_pressure;BME280_temperature;BME280_humidity;BME280_pressure;Samples;Min_cycle;Max_cycle;Signal;HPM_P1;HPM_P2
2022/07/04 00:02:25;;;;;;;1.87;0.83;;;17.00;99.90;;;;;;5052266;28;20196;-35
2022/07/04 00:04:51;;;;;;;1.63;1.10;;;16.90;99.90;;;;;;5052255;28;20193;-35
2022/07/04 00:07:17;;;;;;;1.37;0.90;;;16.90;99.90;;;;;;5051366;28;20249;-36
2022/07/04 00:09:43;;;;;;;1.70;1.10;;;16.80;99.90;;;;;;5052116;28;20244;-35
2022/07/04 00:12:09;;;;;;;2.07;1.20;;;16.60;99.90;;;;;;5052063;28;20185;-35
2022/07/04 00:14:34;;;;;;;1.63;0.70;;;16.60;99.90;;;;;;5051804;28;20189;-36
2022/07/04 00:17:00;;;;;;;2.33;1.23;;;16.60;99.90;;;;;;5051100;28;20217;-35
2022/07/04 00:19:26;;;;;;;1.97;1.33;;;16.60;99.90;;;;;;5051887;28;20186;-35
2022/07/04 00:21:52;;;;;;;1.53;0.90;;;16.60;99.90;;;;;;5050791;28;20186;-35
2022/07/04 00:24:18;;;;;;;2.17;0.97;;;16.60;99.90;;;;;;5031831;28;20628;-35
2022/07/04 00:26:43;;;;;;;1.90;1.03;;;16.60;99.90;;;;;;5046873;28;20431;-35
2022/07/04 00:29:09;;;;;;;3.83;1.50;;;16.60;99.90;;;;;;5051337;28;20464;-35
2022/07/04 00:31:35;;;;;;;2.50;1.17;;;16.60;99.90;;;;;;5051571;28;20243;-35
2022/07/04 00:34:01;;;;;;;1.73;1.10;;;16.60;99.90;;;;;;5050223;28;20212;-35
2022/07/04 00:36:27;;;;;;;1.63;1.00;;;16.60;99.90;;;;;;5051474;28;20213;-35
2022/07/04 00:38:53;;;;;;;1.37;1.27;;;16.60;99.90;;;;;;5050917;28;20767;-36
2022/07/04 00:41:18;;;;;;;2.57;0.80;;;16.60;99.90;;;;;;5051351;28;20269;-35
2022/07/04 00:43:58;;;;;;;2.30;1.20;;;16.70;99.90;;;;;;5051177;28;20209;-35
2022/07/04 00:46:24;;;;;;;1.23;0.90;;;16.70;99.90;;;;;;5051347;28;20490;-35
2022/07/04 00:48:50;;;;;;;3.43;1.10;;;16.70;99.90;;;;;;5050787;28;21019;-35
2022/07/04 00:51:16;;;;;;;1.20;1.00;;;16.70;99.90;;;;;;5051258;28;20190;-35
2022/07/04 00:53:42;;;;;;;1.93;1.10;;;16.70;99.90;;;;;;5051386;28;20177;-35
2022/07/04 00:56:08;;;;;;;1.90;1.27;;;16.80;99.90;;;;;;5050909;28;20432;-35
2022/07/04 00:58:34;;;;;;;2.50;1.23;;;16.70;99.90;;;;;;5050511;28;20209;-35
2022/07/04 01:00:59;;;;;;;3.63;1.33;;;16.70;99.90;;;;;;5051218;28;20200;-35
2022/07/04 01:03:25;;;;;;;3.10;1.50;;;16.60;99.90;;;;;;5050995;28;21080;-35
2022/07/04 01:05:51;;;;;;;1.20;1.07;;;16.60;99.90;;;;;;5050977;28;20205;-35
2022/07/04 01:08:17;;;;;;;1.50;1.13;;;16.60;99.90;;;;;;5050205;28;20572;-35
2022/07/04 01:10:43;;;;;;;1.40;1.20;;;16.60;99.90;;;;;;5050707;28;20455;-35
2022/07/04 01:13:21;;;;;;;2.00;1.67;;;16.50;99.90;;;;;;5050660;28;20243;-35
2022/07/04 01:15:47;;;;;;;4.70;1.60;;;16.40;99.90;;;;;;5050926;28;20181;-35
2022/07/04 01:18:13;;;;;;;3.90;1.53;;;16.40;99.90;;;;;;5050021;28;20429;-35
2022/07/04 01:20:39;;;;;;;4.27;1.90;;;16.40;99.90;;;;;;5050883;28;20434;-35
2022/07/04 01:23:05;;;;;;;1.87;1.57;;;16.30;99.90;;;;;;5040608;28;20186;-35
2022/07/04 01:25:32;;;;;;;4.90;1.73;;;16.30;99.90;;;;;;5036554;28;20210;-35
2022/07/04 01:28:01;;;;;;;4.80;1.70;;;16.20;99.90;;;;;;5049369;28;20339;-35
2022/07/04 01:30:28;;;;;;;2.87;1.90;;;16.20;99.90;;;;;;5050176;28;21085;-35
2022/07/04 01:32:54;;;;;;;3.50;1.80;;;16.10;99.90;;;;;;5050425;28;20792;-35
2022/07/04 01:35:21;;;;;;;3.13;1.90;;;16.00;99.90;;;;;;5048593;28;20430;-35
2022/07/04 01:37:47;;;;;;;2.70;1.83;;;16.00;99.90;;;;;;5049621;28;20790;-35
2022/07/04 01:40:13;;;;;;;2.70;2.00;;;15.90;99.90;;;;;;5050476;28;20439;-35
2022/07/04 01:42:40;;;;;;;2.27;1.90;;;15.90;99.90;;;;;;5050363;28;20436;-35
2022/07/04 01:45:07;;;;;;;3.63;1.90;;;15.80;99.90;;;;;;5050208;28;20271;-35
2022/07/04 01:47:33;;;;;;;4.40;2.10;;;15.70;99.90;;;;;;5049583;28;21038;-35
2022/07/04 01:49:59;;;;;;;4.50;1.70;;;15.70;99.90;;;;;;5050107;28;21053;-35
2022/07/04 01:52:24;;;;;;;3.27;2.13;;;15.70;99.90;;;;;;5049887;28;20435;-35
2022/07/04 01:54:50;;;;;;;3.00;2.10;;;15.60;99.90;;;;;;5050182;28;20178;-35
2022/07/04 01:57:16;;;;;;;3.23;1.90;;;15.60;99.90;;;;;;5049394;28;20186;-35
2022/07/04 02:02:26;;;;;;;3.33;2.20;;;15.60;99.90;;;;;;5049951;28;20192;-35
2022/07/04 02:04:52;;;;;;;3.07;2.17;;;15.50;99.90;;;;;;5049826;28;20421;-35
2022/07/04 02:07:18;;;;;;;2.37;1.60;;;15.40;99.90;;;;;;5049088;28;20468;-35
2022/07/04 02:09:43;;;;;;;2.93;1.80;;;15.40;99.90;;;;;;5050079;28;20205;-35
2022/07/04 02:14:53;;;;;;;2.47;1.60;;;15.40;99.90;;;;;;5049847;28;20802;-35
2022/07/04 02:17:20;;;;;;;2.67;2.00;;;15.40;99.90;;;;;;5048908;28;20439;-35
2022/07/04 02:19:46;;;;;;;2.80;2.40;;;15.30;99.90;;;;;;5049700;28;20653;-35
2022/07/04 02:22:11;;;;;;;4.03;1.90;;;15.20;99.90;;;;;;5047025;28;20439;-35
2022/07/04 02:24:37;;;;;;;1.90;1.70;;;15.10;99.90;;;;;;5029814;28;20904;-35
2022/07/04 02:27:03;;;;;;;2.57;2.00;;;15.10;99.90;;;;;;5047417;28;20189;-35
2022/07/04 02:29:29;;;;;;;2.00;1.80;;;15.10;99.90;;;;;;5049717;28;20190;-35
2022/07/04 02:31:55;;;;;;;2.53;1.73;;;15.10;99.90;;;;;;5049337;28;20274;-35
2022/07/04 02:34:20;;;;;;;2.60;2.03;;;15.00;99.90;;;;;;5048081;28;20458;-35
2022/07/04 02:36:46;;;;;;;3.83;2.30;;;15.00;99.90;;;;;;5049189;28;20205;-35
2022/07/04 02:39:12;;;;;;;3.37;2.30;;;15.00;99.90;;;;;;5049560;28;20201;-35
2022/07/04 02:41:38;;;;;;;3.00;2.40;;;15.00;99.90;;;;;;5053602;28;20217;-35
2022/07/04 02:44:04;;;;;;;3.27;1.97;;;14.90;99.90;;;;;;5053508;28;20543;-35
2022/07/04 02:46:32;;;;;;;2.43;2.23;;;14.90;99.90;;;;;;5053473;28;20197;-35
2022/07/04 02:48:57;;;;;;;2.33;2.00;;;14.90;99.90;;;;;;5053261;28;20583;-35
2022/07/04 02:51:23;;;;;;;3.23;2.20;;;15.00;99.90;;;;;;5053607;28;20424;-35
2022/07/04 02:53:49;;;;;;;4.70;2.27;;;15.00;99.90;;;;;;5053488;28;20190;-35
2022/07/04 02:56:14;;;;;;;3.57;3.10;;;15.00;99.90;;;;;;5053598;28;20189;-35
2022/07/04 02:58:40;;;;;;;3.00;2.33;;;15.00;99.90;;;;;;5052827;28;20197;-35
2022/07/04 03:01:06;;;;;;;3.13;2.30;;;14.90;99.90;;;;;;5053166;28;20181;-35
2022/07/04 03:03:32;;;;;;;2.80;2.27;;;14.80;99.90;;;;;;5053312;28;20312;-35
2022/07/04 03:05:58;;;;;;;4.10;2.70;;;14.80;99.90;;;;;;5053237;28;20920;-35
2022/07/04 03:08:23;;;;;;;3.63;2.50;;;14.90;99.90;;;;;;5052583;28;20684;-35
2022/07/04 03:10:51;;;;;;;4.03;2.20;;;14.80;99.90;;;;;;5053115;28;20704;-35
2022/07/04 03:13:17;;;;;;;2.77;2.03;;;14.80;99.90;;;;;;5053154;28;20214;-35
2022/07/04 03:15:43;;;;;;;2.80;2.57;;;14.80;99.90;;;;;;5052966;28;20478;-35
2022/07/04 03:18:09;;;;;;;5.17;3.27;;;14.80;99.90;;;;;;5052414;28;20455;-35
2022/07/04 03:20:34;;;;;;;4.50;2.60;;;14.70;99.90;;;;;;5052886;28;20209;-35
2022/07/04 03:23:00;;;;;;;6.60;3.20;;;14.70;99.90;;;;;;5043082;28;20429;-35
2022/07/04 03:25:26;;;;;;;3.77;2.27;;;14.70;99.90;;;;;;5038244;28;20217;-35
2022/07/04 03:27:52;;;;;;;4.70;2.23;;;14.70;99.90;;;;;;5052271;28;20205;-35
2022/07/04 03:30:17;;;;;;;3.10;2.60;;;14.80;99.90;;;;;;5052823;28;20485;-35
2022/07/04 03:32:43;;;;;;;4.03;2.90;;;14.80;99.90;;;;;;5052736;28;20190;-35
2022/07/04 03:35:09;;;;;;;2.77;2.57;;;14.80;99.90;;;;;;5051368;28;20186;-35
2022/07/04 03:37:35;;;;;;;4.10;2.50;;;14.80;99.90;;;;;;5051999;28;20214;-35
2022/07/04 03:40:01;;;;;;;2.73;2.13;;;14.80;99.90;;;;;;5052865;28;20193;-35
2022/07/04 03:42:26;;;;;;;4.20;2.83;;;14.80;99.90;;;;;;5052561;28;20201;-35
2022/07/04 03:44:52;;;;;;;4.20;2.60;;;14.80;99.90;;;;;;5052318;28;20424;-35
2022/07/04 03:47:18;;;;;;;6.23;2.90;;;14.90;99.90;;;;;;5051671;28;20695;-35
2022/07/04 03:49:44;;;;;;;4.27;2.97;;;14.80;99.90;;;;;;5052581;28;20277;-35
2022/07/04 03:52:09;;;;;;;4.60;3.30;;;14.90;99.90;;;;;;5051460;28;20197;-35
2022/07/04 03:54:35;;;;;;;4.67;3.80;;;14.90;99.90;;;;;;5052575;28;20186;-35
2022/07/04 03:57:01;;;;;;;4.23;2.93;;;14.90;99.90;;;;;;5051757;28;20186;-35
2022/07/04 03:59:26;;;;;;;5.10;3.47;;;15.00;99.90;;;;;;5051944;28;20185;-35
2022/07/04 04:01:52;;;;;;;3.27;2.97;;;15.00;99.90;;;;;;5052334;28;20658;-35
2022/07/04 04:07:02;;;;;;;4.83;3.70;;;15.00;99.90;;;;;;5051359;28;20552;-35
2022/07/04 04:09:28;;;;;;;5.20;3.00;;;15.00;99.90;;;;;;5051946;28;20440;-35
2022/07/04 04:11:54;;;;;;;5.60;2.87;;;15.10;99.90;;;;;;5051819;28;20429;-35
2022/07/04 04:14:19;;;;;;;3.20;2.40;;;15.10;99.90;;;;;;5051881;28;20268;-35
2022/07/04 04:16:45;;;;;;;5.03;3.60;;;15.10;99.90;;;;;;5051508;28;20652;-35
2022/07/04 04:19:12;;;;;;;6.33;4.07;;;15.10;99.90;;;;;;5051878;28;20555;-35
2022/07/04 04:21:38;;;;;;;5.10;3.03;;;15.10;99.90;;;;;;5052478;28;20290;-35
2022/07/04 04:24:04;;;;;;;4.17;3.23;;;15.10;99.90;;;;;;5031768;28;20429;-35
2022/07/04 04:26:30;;;;;;;5.17;3.70;;;15.20;99.90;;;;;;5045520;28;20431;-35
2022/07/04 04:28:56;;;;;;;5.27;3.50;;;15.20;99.90;;;;;;5051347;28;20460;-35
2022/07/04 04:31:22;;;;;;;4.83;4.10;;;15.20;99.90;;;;;;5051677;28;20434;-35
2022/07/04 04:33:48;;;;;;;4.00;3.37;;;15.20;99.90;;;;;;5050344;28;21133;-35
2022/07/04 04:36:13;;;;;;;5.77;4.03;;;15.30;99.90;;;;;;5051475;28;20416;-35
2022/07/04 04:38:39;;;;;;;4.87;3.50;;;15.40;99.90;;;;;;5050993;28;20440;-35
2022/07/04 04:41:05;;;;;;;4.50;4.10;;;15.40;99.90;;;;;;5049213;28;20275;-35
2022/07/04 04:43:30;;;;;;;6.53;3.60;;;15.40;99.90;;;;;;5040386;28;20725;-35
2022/07/04 04:45:56;;;;;;;6.50;4.30;;;15.50;99.90;;;;;;5047917;28;20194;-35
2022/07/04 04:48:22;;;;;;;4.10;3.57;;;15.50;99.90;;;;;;5038994;28;20210;-35
2022/07/04 04:50:47;;;;;;;4.80;3.80;;;15.60;99.90;;;;;;5031134;28;20186;-35
2022/07/04 04:53:13;;;;;;;5.70;4.03;;;15.60;99.90;;;;;;5031464;28;20226;-35
2022/07/04 04:55:39;;;;;;;4.30;3.90;;;15.70;99.90;;;;;;5043432;28;20248;-35
2022/07/04 04:58:05;;;;;;;6.63;4.20;;;15.80;99.90;;;;;;5040995;28;20189;-35
2022/07/04 05:00:31;;;;;;;5.67;4.17;;;15.90;99.90;;;;;;5043090;28;20778;-35
2022/07/04 05:02:57;;;;;;;8.07;3.53;;;16.00;99.90;;;;;;5037656;28;20252;-35
2022/07/04 05:05:23;;;;;;;6.67;4.50;;;16.00;99.90;;;;;;5040321;28;20452;-35
2022/07/04 05:07:49;;;;;;;5.30;4.70;;;16.10;99.90;;;;;;5039809;28;20232;-35
2022/07/04 05:10:15;;;;;;;7.20;5.30;;;16.20;99.90;;;;;;5041288;28;20198;-35
2022/07/04 05:12:44;;;;;;;7.37;5.20;;;16.20;99.90;;;;;;5040469;28;20490;-35
2022/07/04 05:15:10;;;;;;;9.93;4.57;;;16.40;99.90;;;;;;5050635;28;20486;-35
2022/07/04 05:17:36;;;;;;;9.83;4.77;;;16.40;99.90;;;;;;5050045;28;20431;-35
2022/07/04 05:20:03;;;;;;;7.60;4.73;;;16.50;99.90;;;;;;5050708;28;20420;-35
2022/07/04 05:22:28;;;;;;;6.87;4.53;;;16.60;99.90;;;;;;5043540;28;20452;-35
2022/07/04 05:24:54;;;;;;;7.10;4.77;;;16.70;99.90;;;;;;5031165;28;20468;-35
2022/07/04 05:27:20;;;;;;;9.13;4.87;;;16.80;99.90;;;;;;5049874;28;20654;-35
2022/07/04 05:29:46;;;;;;;6.40;4.90;;;16.90;99.90;;;;;;5050412;28;20197;-35
2022/07/04 05:32:12;;;;;;;7.43;6.63;;;16.90;99.90;;;;;;5050505;28;20416;-35
2022/07/04 05:34:37;;;;;;;7.80;4.50;;;17.00;99.90;;;;;;5049362;28;20750;-35
2022/07/04 05:37:04;;;;;;;9.60;6.23;;;17.10;99.90;;;;;;5049882;28;20196;-35
2022/07/04 05:39:30;;;;;;;6.40;4.83;;;17.10;99.90;;;;;;5049916;28;20664;-35
2022/07/04 05:41:56;;;;;;;7.10;4.90;;;17.20;99.90;;;;;;5050348;28;20450;-35
2022/07/04 05:44:21;;;;;;;9.90;5.50;;;17.30;99.90;;;;;;5050223;28;20430;-35
2022/07/04 05:46:47;;;;;;;7.47;5.43;;;17.40;99.90;;;;;;5049863;28;20189;-35
2022/07/04 05:49:13;;;;;;;5.50;4.90;;;17.40;99.90;;;;;;5039958;28;20213;-35
2022/07/04 05:51:39;;;;;;;7.20;4.97;;;17.60;99.90;;;;;;5044048;28;20553;-35
2022/07/04 05:54:04;;;;;;;7.77;4.70;;;17.70;99.90;;;;;;5033456;28;20264;-35
2022/07/04 05:56:30;;;;;;;7.00;4.50;;;17.80;99.90;;;;;;5030370;28;20653;-35
2022/07/04 05:58:56;;;;;;;11.63;5.40;;;17.90;99.90;;;;;;5035602;28;20729;-35
2022/07/04 06:01:22;;;;;;;6.70;4.17;;;18.10;99.90;;;;;;5036085;28;20218;-35
2022/07/04 06:03:48;;;;;;;5.17;3.50;;;18.10;99.90;;;;;;5042720;28;20202;-36
2022/07/04 06:06:15;;;;;;;8.73;3.40;;;18.20;99.90;;;;;;5029919;28;20441;-35
2022/07/04 06:08:41;;;;;;;5.30;2.80;;;18.30;99.90;;;;;;5035070;28;20452;-35
2022/07/04 06:11:07;;;;;;;6.43;3.63;;;18.30;99.90;;;;;;5045630;28;20984;-35
2022/07/04 06:13:32;;;;;;;4.70;3.10;;;18.40;99.90;;;;;;5046673;28;20423;-35
2022/07/04 06:15:58;;;;;;;7.13;2.93;;;18.50;99.90;;;;;;5047485;28;20189;-35
2022/07/04 06:18:24;;;;;;;4.17;3.10;;;18.60;99.90;;;;;;5033638;28;20544;-35
2022/07/04 06:20:50;;;;;;;4.90;3.33;;;18.80;99.90;;;;;;5037384;28;20186;-35
2022/07/04 06:23:16;;;;;;;3.50;2.80;;;18.90;99.90;;;;;;5044980;28;20194;-35
2022/07/04 06:25:41;;;;;;;7.73;2.83;;;19.00;99.90;;;;;;5045158;28;20973;-35
2022/07/04 06:28:07;;;;;;;4.50;2.90;;;19.10;99.90;;;;;;5047152;28;20554;-35
2022/07/04 06:30:33;;;;;;;3.97;2.57;;;19.10;99.90;;;;;;5049251;28;20289;-35
2022/07/04 06:32:59;;;;;;;6.80;3.30;;;19.10;99.90;;;;;;5049723;28;20224;-35
2022/07/04 06:35:46;;;;;;;4.60;3.00;;;19.30;99.90;;;;;;5048790;28;20456;-35
2022/07/04 06:38:16;;;;;;;4.00;3.13;;;19.40;99.90;;;;;;5048831;28;20523;-35
2022/07/04 06:40:43;;;;;;;4.37;3.30;;;19.40;99.90;;;;;;5049806;28;20515;-35
2022/07/04 06:43:09;;;;;;;6.53;2.70;;;19.50;99.90;;;;;;5049739;28;20473;-35
2022/07/04 06:45:36;;;;;;;3.03;2.27;;;19.70;99.90;;;;;;5049517;28;20744;-35
2022/07/04 06:48:05;;;;;;;3.23;2.13;;;19.80;99.90;;;;;;5048856;28;20459;-35
2022/07/04 06:50:34;;;;;;;4.13;3.07;;;19.90;99.90;;;;;;5049475;28;20478;-35
2022/07/04 06:53:04;;;;;;;4.13;3.53;;;19.80;99.90;;;;;;5049546;28;20424;-35
2022/07/04 06:55:35;;;;;;;4.97;2.70;;;19.80;99.90;;;;;;5049538;28;20423;-35
2022/07/04 06:58:01;;;;;;;5.30;2.50;;;19.90;99.90;;;;;;5049035;28;20821;-35
2022/07/04 07:00:30;;;;;;;3.77;2.60;;;20.10;99.90;;;;;;5049344;28;20918;-35
2022/07/04 07:02:57;;;;;;;4.57;2.10;;;20.20;99.90;;;;;;5049295;28;20432;-35
2022/07/04 07:05:24;;;;;;;5.73;2.63;;;20.20;99.90;;;;;;5049348;28;20428;-35
2022/07/04 07:07:50;;;;;;;4.00;2.37;;;20.10;99.90;;;;;;5048817;28;20460;-35
2022/07/04 07:10:16;;;;;;;6.93;2.30;;;20.20;99.90;;;;;;5049219;28;20427;-35
2022/07/04 07:12:41;;;;;;;2.70;2.30;;;20.30;99.90;;;;;;5049528;28;20201;-35
2022/07/04 07:15:08;;;;;;;4.30;2.47;;;20.40;99.90;;;;;;5049178;28;20221;-35
2022/07/04 07:17:34;;;;;;;3.37;2.43;;;20.60;99.90;;;;;;5048625;28;20186;-35
2022/07/04 07:20:00;;;;;;;3.83;2.57;;;20.70;99.90;;;;;;5049121;28;20473;-35
2022/07/04 07:22:26;;;;;;;3.90;2.30;;;20.70;99.90;;;;;;5022900;28;20429;-35
2022/07/04 07:24:52;;;;;;;3.10;1.93;;;20.90;99.90;;;;;;5029655;28;20421;-35
2022/07/04 07:27:18;;;;;;;3.17;1.97;;;21.00;99.50;;;;;;5049783;28;20192;-35
2022/07/04 07:29:44;;;;;;;3.40;2.30;;;21.10;98.70;;;;;;5052752;28;20431;-35
2022/07/04 07:32:10;;;;;;;2.63;1.70;;;21.00;98.80;;;;;;5052658;28;20427;-35
2022/07/04 07:34:36;;;;;;;2.13;1.93;;;20.90;98.30;;;;;;5051764;28;21136;-35
2022/07/04 07:37:02;;;;;;;2.90;1.70;;;20.80;98.70;;;;;;5051921;28;20223;-35
2022/07/04 07:39:28;;;;;;;1.50;1.23;;;20.80;98.80;;;;;;5038925;28;20203;-35
2022/07/04 07:41:54;;;;;;;4.30;1.90;;;20.80;97.60;;;;;;5052630;28;20527;-35
2022/07/04 07:44:19;;;;;;;2.90;1.20;;;20.90;97.00;;;;;;5052450;28;20193;-36
2022/07/04 07:46:45;;;;;;;2.80;1.77;;;21.00;97.60;;;;;;5050499;28;20565;-35
2022/07/04 07:49:11;;;;;;;3.00;2.00;;;21.00;97.80;;;;;;5052425;28;20217;-35
2022/07/04 07:51:36;;;;;;;2.53;1.90;;;20.80;97.80;;;;;;5052418;28;20709;-35
2022/07/04 07:54:02;;;;;;;3.70;2.07;;;20.80;98.60;;;;;;5052371;28;20174;-35
2022/07/04 07:56:28;;;;;;;4.70;2.03;;;20.90;98.80;;;;;;5052335;28;20811;-35
2022/07/04 07:58:54;;;;;;;2.47;1.53;;;20.90;98.70;;;;;;5051433;28;20668;-35
2022/07/04 08:01:20;;;;;;;2.70;1.60;;;21.00;99.10;;;;;;5050990;28;20280;-35
2022/07/04 08:06:32;;;;;;;3.63;1.53;;;21.20;98.50;;;;;;5051861;28;20451;-35
2022/07/04 08:08:58;;;;;;;1.63;1.50;;;21.20;97.80;;;;;;5051816;28;20448;-35
2022/07/04 08:11:24;;;;;;;2.80;1.73;;;21.20;98.50;;;;;;5052047;28;20420;-35
2022/07/04 08:13:50;;;;;;;1.60;1.40;;;21.20;98.10;;;;;;5051890;28;20511;-35
2022/07/04 08:16:16;;;;;;;1.60;1.30;;;21.20;98.10;;;;;;5052156;28;20429;-35
2022/07/04 08:18:42;;;;;;;2.00;1.20;;;21.00;97.50;;;;;;5051156;28;20428;-35
2022/07/04 08:21:08;;;;;;;4.50;1.20;;;21.00;97.80;;;;;;5052689;28;20431;-35
2022/07/04 08:23:34;;;;;;;2.60;1.00;;;20.90;95.90;;;;;;5032984;28;20246;-36
2022/07/04 08:26:01;;;;;;;1.50;1.20;;;20.90;96.80;;;;;;5041789;28;20438;-35
2022/07/04 08:28:27;;;;;;;3.27;1.10;;;20.90;96.70;;;;;;5050844;28;20202;-35
2022/07/04 08:30:53;;;;;;;1.57;1.00;;;20.90;96.90;;;;;;5051789;28;20428;-35
2022/07/04 08:33:19;;;;;;;1.80;1.23;;;20.90;97.60;;;;;;5050929;28;20455;-35
2022/07/04 08:35:45;;;;;;;1.63;1.20;;;21.10;97.50;;;;;;5051520;28;20460;-35
2022/07/04 08:38:11;;;;;;;1.60;1.20;;;21.10;97.00;;;;;;5050690;28;20596;-35
2022/07/04 08:40:37;;;;;;;2.83;1.47;;;21.10;96.50;;;;;;5051311;28;20265;-35
2022/07/04 08:43:03;;;;;;;2.30;1.40;;;21.20;96.10;;;;;;5051592;28;20507;-35
2022/07/04 08:45:34;;;;;;;1.47;1.23;;;21.30;96.40;;;;;;5051460;28;20221;-35
2022/07/04 08:48:08;;;;;;;2.00;1.20;;;21.30;96.70;;;;;;5050787;28;20460;-35
2022/07/04 08:50:39;;;;;;;1.93;1.20;;;21.40;96.70;;;;;;5051157;28;20464;-35
2022/07/04 08:53:13;;;;;;;3.10;1.50;;;21.60;97.00;;;;;;5051246;28;20430;-35
2022/07/04 08:58:30;;;;;;;2.37;1.50;;;21.80;96.10;;;;;;5050601;28;20439;-35
2022/07/04 09:01:01;;;;;;;1.67;1.27;;;22.00;95.50;;;;;;5050915;28;20428;-35
2022/07/04 09:03:28;;;;;;;2.07;1.20;;;22.10;95.10;;;;;;5051050;28;20786;-35
2022/07/04 09:05:55;;;;;;;2.77;1.23;;;22.20;95.40;;;;;;5050879;28;20451;-35
2022/07/04 09:08:22;;;;;;;1.93;1.00;;;22.20;95.50;;;;;;5050496;28;20472;-35
2022/07/04 09:10:51;;;;;;;2.33;1.27;;;22.30;95.50;;;;;;5050948;28;20451;-35
2022/07/04 09:13:18;;;;;;;1.50;1.00;;;22.40;95.10;;;;;;5051028;28;20426;-35
2022/07/04 09:15:46;;;;;;;1.50;0.97;;;22.60;94.10;;;;;;5050844;28;20460;-35
2022/07/04 09:18:21;;;;;;;4.00;1.13;;;22.60;94.30;;;;;;5049980;28;20937;-35
2022/07/04 09:20:47;;;;;;;2.10;1.37;;;22.70;94.30;;;;;;5050711;28;21056;-35
2022/07/04 09:23:22;;;;;;;1.50;1.00;;;22.80;93.40;;;;;;5039591;28;20441;-35
2022/07/04 09:26:05;;;;;;;1.73;0.90;;;22.90;93.40;;;;;;5037750;28;20439;-36
2022/07/04 09:28:31;;;;;;;1.07;0.97;;;22.90;92.60;;;;;;5036284;28;20811;-35
2022/07/04 09:30:58;;;;;;;0.80;0.80;;;23.00;92.70;;;;;;5050537;28;20432;-35
2022/07/04 09:33:44;;;;;;;2.03;0.90;;;23.00;92.20;;;;;;5048274;28;20200;-36
2022/07/04 09:36:15;;;;;;;1.00;0.80;;;22.90;90.50;;;;;;5050550;28;20416;-35
2022/07/04 09:38:41;;;;;;;1.83;0.80;;;23.00;91.40;;;;;;5049728;28;20447;-35
2022/07/04 09:41:24;;;;;;;1.40;1.00;;;23.10;91.90;;;;;;5050303;28;20432;-36
2022/07/04 09:44:05;;;;;;;1.50;1.00;;;23.20;91.40;;;;;;5050274;28;20198;-35
2022/07/04 09:46:32;;;;;;;2.70;1.40;;;23.40;91.70;;;;;;5050125;28;20432;-35
2022/07/04 09:48:58;;;;;;;2.43;1.30;;;23.40;91.20;;;;;;5047874;28;20492;-35
2022/07/04 09:51:42;;;;;;;1.40;1.30;;;23.60;90.90;;;;;;5049861;28;20431;-36
2022/07/04 09:54:30;;;;;;;1.60;1.00;;;23.60;90.90;;;;;;5050060;28;20518;-36
2022/07/04 09:56:59;;;;;;;2.90;1.00;;;23.80;91.80;;;;;;5049659;28;20435;-36
2022/07/04 09:59:27;;;;;;;2.53;1.20;;;23.90;91.80;;;;;;5050050;28;20511;-36
2022/07/04 10:02:09;;;;;;;1.80;1.10;;;24.00;92.50;;;;;;5049924;28;20424;-36
2022/07/04 10:04:51;;;;;;;1.13;0.90;;;24.00;91.10;;;;;;5048618;28;20442;-35
2022/07/04 10:07:43;;;;;;;2.03;1.17;;;24.00;91.00;;;;;;5049266;28;20455;-35
2022/07/04 10:10:31;;;;;;;1.43;1.10;;;24.10;90.30;;;;;;5049720;28;20460;-36
2022/07/04 10:13:05;;;;;;;2.80;1.20;;;24.00;90.80;;;;;;5049965;28;20420;-36
2022/07/04 10:15:33;;;;;;;2.10;1.20;;;24.10;88.00;;;;;;5048472;28;20455;-35
2022/07/04 10:18:00;;;;;;;2.47;0.90;;;24.10;89.40;;;;;;5049354;28;20452;-35
2022/07/04 10:20:26;;;;;;;2.70;0.90;;;24.00;90.10;;;;;;5048330;28;20489;-35
2022/07/04 10:22:52;;;;;;;2.80;1.00;;;24.10;90.10;;;;;;5039645;28;20425;-36
2022/07/04 10:25:19;;;;;;;2.10;0.93;;;24.20;87.40;;;;;;5034054;28;20412;-35
2022/07/04 10:27:45;;;;;;;2.00;1.20;;;24.20;84.30;;;;;;5049126;28;20982;-36
2022/07/04 10:30:15;;;;;;;2.27;1.10;;;24.20;87.00;;;;;;5049687;28;20424;-35
2022/07/04 10:32:44;;;;;;;1.20;0.80;;;24.20;89.00;;;;;;5049636;28;20435;-36
2022/07/04 10:35:13;;;;;;;3.83;1.43;;;24.30;88.50;;;;;;5048680;28;20428;-36
2022/07/04 10:38:18;;;;;;;2.03;1.00;;;24.50;90.30;;;;;;5049252;28;20482;-36
2022/07/04 10:40:46;;;;;;;1.20;0.90;;;24.50;87.90;;;;;;5033059;28;20476;-35
2022/07/04 10:43:51;;;;;;;3.63;1.40;;;24.50;85.70;;;;;;5026970;28;20544;-35
2022/07/04 10:46:16;;;;;;;2.87;1.00;;;24.50;84.70;;;;;;5028686;28;20487;-36
2022/07/04 10:49:13;;;;;;;1.40;1.00;;;24.60;86.80;;;;;;5028901;28;20457;-36
2022/07/04 10:51:49;;;;;;;1.73;1.10;;;24.70;88.90;;;;;;5039863;28;20177;-35
2022/07/04 10:54:18;;;;;;;2.63;1.30;;;24.70;86.30;;;;;;5049690;28;20422;-36
2022/07/04 10:56:48;;;;;;;1.67;1.13;;;24.60;84.60;;;;;;5049051;28;20416;-36
2022/07/04 10:59:21;;;;;;;3.17;1.47;;;24.80;88.00;;;;;;5049282;28;20412;-35
2022/07/04 11:02:13;;;;;;;5.17;1.57;;;25.00;90.40;;;;;;5050673;28;20452;-35
2022/07/04 11:05:08;;;;;;;2.80;1.20;;;25.10;87.20;;;;;;5053183;28;20438;-36
2022/07/04 11:07:37;;;;;;;3.37;1.23;;;24.90;82.60;;;;;;5052421;28;20492;-35
2022/07/04 11:10:12;;;;;;;3.30;1.10;;;25.00;84.40;;;;;;5053090;28;20481;-36
2022/07/04 11:12:56;;;;;;;1.87;1.40;;;25.10;85.10;;;;;;5053241;28;20419;-35
2022/07/04 11:15:28;;;;;;;5.50;1.30;;;25.30;86.10;;;;;;5053130;28;20833;-36
2022/07/04 11:18:03;;;;;;;3.10;1.67;;;25.40;86.00;;;;;;5052599;28;20458;-35
2022/07/04 11:20:32;;;;;;;1.60;1.10;;;25.30;84.00;;;;;;5053035;28;20419;-36
2022/07/04 11:23:12;;;;;;;2.30;1.33;;;25.20;84.30;;;;;;5042315;28;20421;-36
2022/07/04 11:25:40;;;;;;;3.80;2.00;;;25.00;86.10;;;;;;5038422;28;20423;-35
2022/07/04 11:28:31;;;;;;;4.20;1.50;;;25.00;84.20;;;;;;5052249;28;20531;-36
2022/07/04 11:31:01;;;;;;;1.30;1.20;;;24.90;80.90;;;;;;5052833;28;20416;-36
2022/07/04 11:33:32;;;;;;;2.20;1.60;;;24.50;80.80;;;;;;5051963;28;20412;-36
2022/07/04 11:36:08;;;;;;;1.43;1.13;;;24.20;82.80;;;;;;5052601;28;20412;-35
2022/07/04 11:38:48;;;;;;;5.30;1.33;;;24.10;85.50;;;;;;5052269;28;20434;-35
2022/07/04 11:46:48;;;;;;;3.13;1.20;;;24.40;88.20;;;;;;5040474;28;20455;-36
2022/07/04 11:49:14;;;;;;;1.73;1.40;;;24.10;83.30;;;;;;5034077;28;20812;-36
2022/07/04 11:51:49;;;;;;;1.90;1.33;;;24.10;85.20;;;;;;5032426;28;20520;-36
2022/07/04 11:54:15;;;;;;;2.00;1.67;;;24.00;86.50;;;;;;5032284;28;20432;-36
2022/07/04 11:56:41;;;;;;;1.80;1.50;;;24.00;87.10;;;;;;5031449;28;20428;-35
2022/07/04 11:59:15;;;;;;;1.70;1.40;;;23.90;86.80;;;;;;5032254;28;20311;-36
2022/07/04 12:01:42;;;;;;;2.37;1.13;;;23.90;87.90;;;;;;5039799;28;20182;-35
2022/07/04 12:04:19;;;;;;;1.93;1.30;;;23.90;86.10;;;;;;5032145;28;20788;-35
2022/07/04 12:06:47;;;;;;;2.03;1.33;;;24.00;88.60;;;;;;5031461;28;20575;-36
2022/07/04 12:09:16;;;;;;;3.30;1.33;;;24.10;87.80;;;;;;5038604;28;20619;-36
2022/07/04 12:11:58;;;;;;;2.30;1.67;;;24.00;85.00;;;;;;5052063;28;20427;-36
2022/07/04 12:14:27;;;;;;;2.17;1.50;;;23.90;87.00;;;;;;5051513;28;20485;-35
2022/07/04 12:17:13;;;;;;;1.53;1.43;;;23.90;86.90;;;;;;5051275;28;20462;-35
2022/07/04 12:19:56;;;;;;;3.80;1.23;;;24.00;88.10;;;;;;5051552;28;20474;-36
2022/07/04 12:22:31;;;;;;;3.37;1.70;;;24.00;83.50;;;;;;5047081;28;20923;-36
2022/07/04 12:24:58;;;;;;;1.90;1.20;;;23.90;86.30;;;;;;5032767;28;20440;-36
2022/07/04 12:27:26;;;;;;;2.97;1.60;;;23.70;84.80;;;;;;5051072;28;20434;-35
2022/07/04 12:29:53;;;;;;;1.70;1.30;;;23.70;87.20;;;;;;5051168;28;20515;-36
2022/07/04 12:32:19;;;;;;;2.27;1.40;;;23.60;88.20;;;;;;5051617;28;20432;-36
2022/07/04 12:34:46;;;;;;;2.57;1.13;;;23.80;89.20;;;;;;5050447;28;20426;-35
2022/07/04 12:37:13;;;;;;;1.50;1.33;;;24.00;86.60;;;;;;5039813;28;20426;-36
2022/07/04 12:39:43;;;;;;;2.17;1.10;;;24.20;86.70;;;;;;5031372;28;21131;-36
2022/07/04 12:42:19;;;;;;;1.73;1.10;;;24.40;85.90;;;;;;5031550;28;20437;-35
2022/07/04 12:44:49;;;;;;;1.97;1.30;;;24.40;86.20;;;;;;5030080;28;20436;-35
2022/07/04 12:47:15;;;;;;;1.20;1.10;;;24.40;86.20;;;;;;5049512;28;20531;-36
2022/07/04 12:49:46;;;;;;;2.33;1.30;;;24.30;85.80;;;;;;5036991;28;21085;-36
2022/07/04 12:52:15;;;;;;;1.30;1.07;;;24.30;83.50;;;;;;5031216;28;20425;-36
2022/07/04 12:54:45;;;;;;;2.57;1.43;;;24.30;85.20;;;;;;5031268;28;20481;-36
2022/07/04 12:57:18;;;;;;;2.50;1.30;;;24.50;86.70;;;;;;5030727;28;20472;-36
2022/07/04 12:59:43;;;;;;;1.43;1.10;;;24.60;85.60;;;;;;5031344;28;20840;-36
2022/07/04 13:02:11;;;;;;;1.30;1.20;;;24.60;82.70;;;;;;5031285;28;20425;-35
2022/07/04 13:04:38;;;;;;;2.50;1.50;;;24.60;82.90;;;;;;5031282;28;20190;-35
2022/07/04 13:07:15;;;;;;;2.07;1.37;;;24.40;81.80;;;;;;5030355;28;20441;-36
2022/07/04 13:09:43;;;;;;;1.87;1.20;;;24.20;81.80;;;;;;5030950;28;20471;-35
2022/07/04 13:12:25;;;;;;;3.27;1.30;;;24.10;81.20;;;;;;5030863;28;20425;-35
2022/07/04 13:14:53;;;;;;;1.30;1.20;;;24.00;81.80;;;;;;5031141;28;20830;-36